JAL139 RJTT-RJOO
Flight info
| Callsign | JAL139 |
|---|---|
| Flight time | 0h 50m |
| Altitude | 30000 |
| Route | RJTT/05 N0458F300 LAXAS4 LAXAS Y56 TOHME Y54 KOHWA Y546 AGPUK DCT MIRAI DCT ABENO DCT IKOMA DCT RJOO/32L |
| Aircraft | B77W/M-SDE1E2E3FGHIJ2J3J4J5M1RWXYZ/LB1D1 |
Departure
| Time | 2026-05-06 14:19 |
|---|---|
| Airport | Tokyo Haneda International Airport (RJTT) |
Arrival
| Time | 2026-05-06 15:10 |
|---|---|
| Airport | Osaka Itami International Airport (RJOO) |
| Time | Latitude | Longitude | Altitude | Speed | Heading |
|---|---|---|---|---|---|
| 2026-05-06 13:41 | 35.54527 | 139.78423 | 29 ft | 0 kts | 75° |
| 2026-05-06 14:08 | 35.54527 | 139.78422 | 29 ft | 1 kts | 75° |
| 2026-05-06 14:08 | 35.54523 | 139.78404 | 29 ft | 3 kts | 75° |
| 2026-05-06 14:08 | 35.54518 | 139.78383 | 29 ft | 3 kts | 83° |
| 2026-05-06 14:09 | 35.54518 | 139.78359 | 28 ft | 3 kts | 110° |
| 2026-05-06 14:09 | 35.54528 | 139.78338 | 27 ft | 3 kts | 134° |
| 2026-05-06 14:09 | 35.54543 | 139.78322 | 27 ft | 3 kts | 147° |
| 2026-05-06 14:09 | 35.54559 | 139.78310 | 28 ft | 2 kts | 151° |
| 2026-05-06 14:10 | 35.54565 | 139.78306 | 28 ft | 0 kts | 151° |
| 2026-05-06 14:12 | 35.54560 | 139.78310 | 28 ft | 2 kts | 151° |
| 2026-05-06 14:12 | 35.54532 | 139.78328 | 27 ft | 8 kts | 152° |
| 2026-05-06 14:12 | 35.54443 | 139.78389 | 29 ft | 21 kts | 150° |
| 2026-05-06 14:13 | 35.54279 | 139.78505 | 29 ft | 33 kts | 149° |
| 2026-05-06 14:13 | 35.54055 | 139.78667 | 28 ft | 41 kts | 149° |
| 2026-05-06 14:13 | 35.53810 | 139.78844 | 28 ft | 40 kts | 149° |
| 2026-05-06 14:13 | 35.53577 | 139.79012 | 28 ft | 38 kts | 149° |
| 2026-05-06 14:14 | 35.53395 | 139.79162 | 28 ft | 25 kts | 124° |
| 2026-05-06 14:14 | 35.53421 | 139.79357 | 28 ft | 25 kts | 62° |
| 2026-05-06 14:14 | 35.53505 | 139.79540 | 28 ft | 25 kts | 59° |
| 2026-05-06 14:14 | 35.53595 | 139.79719 | 28 ft | 25 kts | 58° |
| 2026-05-06 14:15 | 35.53683 | 139.79899 | 29 ft | 25 kts | 62° |
| 2026-05-06 14:15 | 35.53641 | 139.80074 | 28 ft | 25 kts | 153° |
| 2026-05-06 14:15 | 35.53491 | 139.80178 | 28 ft | 25 kts | 150° |
| 2026-05-06 14:15 | 35.53344 | 139.80285 | 28 ft | 25 kts | 149° |
| 2026-05-06 14:16 | 35.53195 | 139.80390 | 28 ft | 25 kts | 150° |
| 2026-05-06 14:16 | 35.53047 | 139.80490 | 28 ft | 25 kts | 159° |
| 2026-05-06 14:16 | 35.52891 | 139.80441 | 28 ft | 25 kts | 224° |
| 2026-05-06 14:16 | 35.52765 | 139.80298 | 28 ft | 25 kts | 222° |
| 2026-05-06 14:17 | 35.52637 | 139.80158 | 28 ft | 25 kts | 211° |
| 2026-05-06 14:17 | 35.52499 | 139.80242 | 28 ft | 25 kts | 131° |
| 2026-05-06 14:17 | 35.52474 | 139.80430 | 28 ft | 25 kts | 54° |
| 2026-05-06 14:17 | 35.52501 | 139.80462 | 28 ft | 0 kts | 43° |
| 2026-05-06 14:18 | 35.52503 | 139.80465 | 28 ft | 4 kts | 43° |
| 2026-05-06 14:18 | 35.52688 | 139.80672 | 28 ft | 80 kts | 42° |
| 2026-05-06 14:19 | 35.53312 | 139.81365 | 28 ft | 160 kts | 42° |
| 2026-05-06 14:19 | 35.54236 | 139.82351 | 556 ft | 178 kts | 41° |
| 2026-05-06 14:19 | 35.55211 | 139.83382 | 1308 ft | 190 kts | 44° |
| 2026-05-06 14:19 | 35.56160 | 139.84563 | 2096 ft | 198 kts | 59° |
| 2026-05-06 14:20 | 35.56507 | 139.86124 | 2808 ft | 193 kts | 104° |
| 2026-05-06 14:20 | 35.56120 | 139.87670 | 3578 ft | 191 kts | 114° |
| 2026-05-06 14:20 | 35.55700 | 139.89234 | 4374 ft | 196 kts | 113° |
| 2026-05-06 14:20 | 35.55255 | 139.90899 | 4932 ft | 212 kts | 113° |
| 2026-05-06 14:21 | 35.54786 | 139.92655 | 5579 ft | 221 kts | 113° |
| 2026-05-06 14:21 | 35.54103 | 139.94295 | 6154 ft | 217 kts | 142° |
| 2026-05-06 14:21 | 35.52789 | 139.95130 | 6649 ft | 216 kts | 181° |
| 2026-05-06 14:21 | 35.51307 | 139.94943 | 7221 ft | 217 kts | 195° |
| 2026-05-06 14:22 | 35.49795 | 139.94586 | 7917 ft | 224 kts | 195° |
| 2026-05-06 14:22 | 35.48248 | 139.94220 | 8670 ft | 229 kts | 195° |
| 2026-05-06 14:22 | 35.46682 | 139.93847 | 9429 ft | 232 kts | 197° |
| 2026-05-06 14:22 | 35.45215 | 139.93074 | 10102 ft | 230 kts | 221° |
| 2026-05-06 14:23 | 35.44088 | 139.91694 | 10717 ft | 232 kts | 229° |
| 2026-05-06 14:23 | 35.42986 | 139.90219 | 11384 ft | 236 kts | 229° |
| 2026-05-06 14:23 | 35.41852 | 139.88703 | 11869 ft | 250 kts | 229° |
| 2026-05-06 14:23 | 35.40639 | 139.87080 | 12296 ft | 264 kts | 229° |
| 2026-05-06 14:24 | 35.39373 | 139.85390 | 12879 ft | 273 kts | 229° |
| 2026-05-06 14:24 | 35.38070 | 139.83656 | 13512 ft | 280 kts | 229° |
| 2026-05-06 14:24 | 35.36749 | 139.81900 | 14151 ft | 285 kts | 229° |
| 2026-05-06 14:24 | 35.35393 | 139.80099 | 14788 ft | 287 kts | 229° |
| 2026-05-06 14:25 | 35.34094 | 139.78236 | 15448 ft | 288 kts | 234° |
| 2026-05-06 14:25 | 35.32927 | 139.76237 | 16103 ft | 289 kts | 237° |
| 2026-05-06 14:25 | 35.31784 | 139.74187 | 16733 ft | 291 kts | 237° |
| 2026-05-06 14:25 | 35.30653 | 139.72151 | 17324 ft | 293 kts | 237° |
| 2026-05-06 14:26 | 35.29491 | 139.70076 | 17937 ft | 296 kts | 237° |
| 2026-05-06 14:26 | 35.28316 | 139.67992 | 18520 ft | 298 kts | 237° |
| 2026-05-06 14:26 | 35.27145 | 139.65930 | 19062 ft | 297 kts | 237° |
| 2026-05-06 14:26 | 35.25965 | 139.63859 | 19656 ft | 295 kts | 237° |
| 2026-05-06 14:27 | 35.24790 | 139.61804 | 20001 ft | 296 kts | 237° |
| 2026-05-06 14:27 | 35.23593 | 139.59715 | 19999 ft | 300 kts | 237° |
| 2026-05-06 14:27 | 35.22394 | 139.57625 | 19991 ft | 299 kts | 237° |
| 2026-05-06 14:27 | 35.21219 | 139.55581 | 19990 ft | 296 kts | 237° |
| 2026-05-06 14:28 | 35.20035 | 139.53522 | 19992 ft | 294 kts | 236° |
| 2026-05-06 14:28 | 35.18856 | 139.51473 | 19982 ft | 294 kts | 236° |
| 2026-05-06 14:28 | 35.17671 | 139.49414 | 19992 ft | 298 kts | 236° |
| 2026-05-06 14:28 | 35.16486 | 139.47358 | 20001 ft | 300 kts | 236° |
| 2026-05-06 14:29 | 35.15285 | 139.45273 | 19997 ft | 300 kts | 236° |
| 2026-05-06 14:29 | 35.14079 | 139.43182 | 19979 ft | 299 kts | 237° |
| 2026-05-06 14:29 | 35.12867 | 139.41082 | 20002 ft | 312 kts | 237° |
| 2026-05-06 14:29 | 35.11575 | 139.38839 | 20010 ft | 339 kts | 237° |
| 2026-05-06 14:30 | 35.10162 | 139.36390 | 20013 ft | 365 kts | 236° |
| 2026-05-06 14:30 | 35.08642 | 139.33762 | 20008 ft | 388 kts | 236° |
| 2026-05-06 14:30 | 35.07065 | 139.31037 | 20007 ft | 403 kts | 236° |
| 2026-05-06 14:30 | 35.05456 | 139.28221 | 19993 ft | 403 kts | 238° |
| 2026-05-06 14:31 | 35.04113 | 139.25217 | 19997 ft | 402 kts | 245° |
| 2026-05-06 14:31 | 35.03051 | 139.22093 | 19999 ft | 403 kts | 249° |
| 2026-05-06 14:31 | 35.02176 | 139.18830 | 19991 ft | 404 kts | 255° |
| 2026-05-06 14:31 | 35.01594 | 139.15473 | 19998 ft | 404 kts | 258° |
| 2026-05-06 14:32 | 35.01062 | 139.12096 | 19996 ft | 404 kts | 258° |
| 2026-05-06 14:32 | 35.00527 | 139.08768 | 20001 ft | 405 kts | 258° |
| 2026-05-06 14:32 | 34.99968 | 139.05373 | 19992 ft | 409 kts | 257° |
| 2026-05-06 14:32 | 34.99398 | 139.01958 | 19998 ft | 412 kts | 257° |
| 2026-05-06 14:33 | 34.98859 | 138.98494 | 19989 ft | 415 kts | 260° |
| 2026-05-06 14:33 | 34.98572 | 138.95027 | 19993 ft | 416 kts | 265° |
| 2026-05-06 14:33 | 34.98415 | 138.91499 | 19992 ft | 416 kts | 265° |
| 2026-05-06 14:33 | 34.98244 | 138.87960 | 19993 ft | 416 kts | 265° |
| 2026-05-06 14:34 | 34.98067 | 138.84472 | 19987 ft | 415 kts | 265° |
| 2026-05-06 14:34 | 34.97882 | 138.80958 | 19992 ft | 415 kts | 265° |
| 2026-05-06 14:34 | 34.97695 | 138.77430 | 19987 ft | 415 kts | 265° |
| 2026-05-06 14:34 | 34.97509 | 138.73952 | 19978 ft | 415 kts | 265° |
| 2026-05-06 14:35 | 34.97318 | 138.70422 | 19989 ft | 414 kts | 265° |
| 2026-05-06 14:35 | 34.97127 | 138.66914 | 19991 ft | 414 kts | 264° |
| 2026-05-06 14:35 | 34.96938 | 138.63442 | 19982 ft | 413 kts | 264° |
| 2026-05-06 14:35 | 34.96746 | 138.59935 | 19986 ft | 413 kts | 264° |
| 2026-05-06 14:36 | 34.96553 | 138.56433 | 19990 ft | 413 kts | 264° |
| 2026-05-06 14:36 | 34.96361 | 138.52959 | 19986 ft | 413 kts | 264° |
| 2026-05-06 14:36 | 34.96166 | 138.49452 | 20000 ft | 414 kts | 265° |
| 2026-05-06 14:36 | 34.95970 | 138.45941 | 19991 ft | 414 kts | 265° |
| 2026-05-06 14:37 | 34.95771 | 138.42430 | 19991 ft | 414 kts | 265° |
| 2026-05-06 14:37 | 34.95575 | 138.38970 | 19982 ft | 414 kts | 265° |
| 2026-05-06 14:37 | 34.95375 | 138.35445 | 19982 ft | 414 kts | 265° |
| 2026-05-06 14:37 | 34.95177 | 138.31973 | 19982 ft | 414 kts | 265° |
| 2026-05-06 14:38 | 34.94978 | 138.28461 | 19992 ft | 414 kts | 265° |
| 2026-05-06 14:38 | 34.94774 | 138.24952 | 19991 ft | 414 kts | 265° |
| 2026-05-06 14:38 | 34.94571 | 138.21461 | 19985 ft | 415 kts | 264° |
| 2026-05-06 14:38 | 34.94367 | 138.17949 | 19992 ft | 415 kts | 264° |
| 2026-05-06 14:39 | 34.94161 | 138.14421 | 19991 ft | 416 kts | 264° |
| 2026-05-06 14:39 | 34.93957 | 138.10935 | 19994 ft | 416 kts | 264° |
| 2026-05-06 14:39 | 34.93751 | 138.07404 | 19988 ft | 416 kts | 264° |
| 2026-05-06 14:39 | 34.93543 | 138.03898 | 19965 ft | 416 kts | 264° |
| 2026-05-06 14:40 | 34.93338 | 138.00378 | 19983 ft | 415 kts | 264° |
| 2026-05-06 14:40 | 34.93131 | 137.96858 | 19985 ft | 416 kts | 264° |
| 2026-05-06 14:40 | 34.92921 | 137.93371 | 19990 ft | 416 kts | 264° |
| 2026-05-06 14:40 | 34.92708 | 137.89836 | 19992 ft | 416 kts | 264° |
| 2026-05-06 14:41 | 34.92496 | 137.86302 | 19974 ft | 417 kts | 264° |
| 2026-05-06 14:41 | 34.92285 | 137.82828 | 19991 ft | 417 kts | 264° |
| 2026-05-06 14:41 | 34.92075 | 137.79290 | 19968 ft | 417 kts | 264° |
| 2026-05-06 14:41 | 34.91873 | 137.75758 | 19980 ft | 417 kts | 264° |
| 2026-05-06 14:42 | 34.91668 | 137.72231 | 19983 ft | 417 kts | 264° |
| 2026-05-06 14:42 | 34.91274 | 137.68718 | 19979 ft | 417 kts | 258° |
| 2026-05-06 14:42 | 34.90639 | 137.65309 | 19989 ft | 416 kts | 254° |
| 2026-05-06 14:42 | 34.89744 | 137.61937 | 19984 ft | 416 kts | 249° |
| 2026-05-06 14:43 | 34.88720 | 137.58640 | 19983 ft | 417 kts | 249° |
| 2026-05-06 14:43 | 34.87701 | 137.55331 | 19984 ft | 417 kts | 249° |
| 2026-05-06 14:43 | 34.86690 | 137.52006 | 19981 ft | 417 kts | 249° |
| 2026-05-06 14:43 | 34.85697 | 137.48722 | 19962 ft | 418 kts | 249° |
| 2026-05-06 14:44 | 34.84704 | 137.45398 | 19972 ft | 418 kts | 250° |
| 2026-05-06 14:44 | 34.83739 | 137.42041 | 19969 ft | 418 kts | 251° |
| 2026-05-06 14:44 | 34.82793 | 137.38696 | 19974 ft | 418 kts | 251° |
| 2026-05-06 14:45 | 34.80911 | 137.32036 | 19973 ft | 419 kts | 251° |
| 2026-05-06 14:45 | 34.79956 | 137.28681 | 19969 ft | 419 kts | 251° |
| 2026-05-06 14:45 | 34.78999 | 137.25330 | 19970 ft | 419 kts | 251° |
| 2026-05-06 14:45 | 34.78040 | 137.21982 | 19972 ft | 419 kts | 250° |
| 2026-05-06 14:46 | 34.77077 | 137.18625 | 19970 ft | 419 kts | 250° |
| 2026-05-06 14:46 | 34.76114 | 137.15274 | 19975 ft | 419 kts | 250° |
| 2026-05-06 14:46 | 34.75160 | 137.11958 | 19980 ft | 420 kts | 251° |
| 2026-05-06 14:46 | 34.74189 | 137.08587 | 19978 ft | 422 kts | 251° |
| 2026-05-06 14:47 | 34.73215 | 137.05202 | 19978 ft | 423 kts | 251° |
| 2026-05-06 14:47 | 34.72239 | 137.01817 | 19974 ft | 424 kts | 251° |
| 2026-05-06 14:47 | 34.71258 | 136.98422 | 19973 ft | 424 kts | 251° |
| 2026-05-06 14:47 | 34.70289 | 136.95072 | 19970 ft | 425 kts | 251° |
| 2026-05-06 14:48 | 34.69302 | 136.91676 | 19974 ft | 426 kts | 251° |
| 2026-05-06 14:48 | 34.68311 | 136.88278 | 19975 ft | 427 kts | 251° |
| 2026-05-06 14:48 | 34.67317 | 136.84871 | 19982 ft | 427 kts | 251° |
| 2026-05-06 14:48 | 34.66331 | 136.81497 | 19970 ft | 427 kts | 251° |
| 2026-05-06 14:49 | 34.65337 | 136.78096 | 19976 ft | 427 kts | 251° |
| 2026-05-06 14:49 | 34.64343 | 136.74698 | 19970 ft | 427 kts | 250° |
| 2026-05-06 14:49 | 34.63346 | 136.71291 | 19971 ft | 426 kts | 250° |
| 2026-05-06 14:49 | 34.62351 | 136.67899 | 19974 ft | 426 kts | 250° |
| 2026-05-06 14:50 | 34.61353 | 136.64496 | 19975 ft | 426 kts | 250° |
| 2026-05-06 14:50 | 34.60356 | 136.61103 | 19972 ft | 425 kts | 250° |
| 2026-05-06 14:50 | 34.59372 | 136.57759 | 19973 ft | 425 kts | 250° |
| 2026-05-06 14:50 | 34.58373 | 136.54365 | 19973 ft | 426 kts | 250° |
| 2026-05-06 14:51 | 34.57370 | 136.50965 | 19975 ft | 426 kts | 250° |
| 2026-05-06 14:51 | 34.56371 | 136.47579 | 19982 ft | 427 kts | 250° |
| 2026-05-06 14:51 | 34.55377 | 136.44213 | 19977 ft | 427 kts | 251° |
| 2026-05-06 14:51 | 34.54370 | 136.40808 | 19982 ft | 428 kts | 250° |
| 2026-05-06 14:52 | 34.53375 | 136.37447 | 19976 ft | 428 kts | 250° |
| 2026-05-06 14:52 | 34.52358 | 136.34020 | 19976 ft | 429 kts | 251° |
| 2026-05-06 14:52 | 34.51454 | 136.30564 | 19975 ft | 430 kts | 256° |
| 2026-05-06 14:52 | 34.50946 | 136.27042 | 19934 ft | 428 kts | 262° |
| 2026-05-06 14:53 | 34.50560 | 136.23516 | 19859 ft | 413 kts | 262° |
| 2026-05-06 14:53 | 34.50154 | 136.20128 | 19758 ft | 397 kts | 261° |
| 2026-05-06 14:53 | 34.49878 | 136.17959 | 19693 ft | 386 kts | 261° |
| 2026-05-06 14:53 | 34.49328 | 136.13801 | 19580 ft | 366 kts | 260° |
| 2026-05-06 14:54 | 34.48938 | 136.10876 | 19404 ft | 334 kts | 260° |
| 2026-05-06 14:54 | 34.48741 | 136.09081 | 19278 ft | 315 kts | 267° |
| 2026-05-06 14:54 | 34.48966 | 136.06567 | 19092 ft | 289 kts | 284° |
| 2026-05-06 14:54 | 34.49773 | 136.03657 | 18803 ft | 262 kts | 288° |
| 2026-05-06 14:55 | 34.50370 | 136.01610 | 18363 ft | 254 kts | 287° |
| 2026-05-06 14:55 | 34.50763 | 136.00255 | 17949 ft | 250 kts | 287° |
| 2026-05-06 14:55 | 34.51326 | 135.98294 | 17297 ft | 248 kts | 287° |
| 2026-05-06 14:55 | 34.51891 | 135.96313 | 16625 ft | 247 kts | 287° |
| 2026-05-06 14:56 | 34.52448 | 135.94342 | 15989 ft | 246 kts | 287° |
| 2026-05-06 14:56 | 34.52999 | 135.92387 | 15380 ft | 244 kts | 286° |
| 2026-05-06 14:56 | 34.53540 | 135.90467 | 14810 ft | 242 kts | 286° |
| 2026-05-06 14:56 | 34.54271 | 135.88625 | 14182 ft | 244 kts | 308° |
| 2026-05-06 14:57 | 34.55610 | 135.87373 | 13525 ft | 250 kts | 334° |
| 2026-05-06 14:57 | 34.57308 | 135.86932 | 12898 ft | 252 kts | 360° |
| 2026-05-06 14:57 | 34.59027 | 135.87416 | 12175 ft | 258 kts | 27° |
| 2026-05-06 14:57 | 34.60391 | 135.88834 | 11442 ft | 262 kts | 57° |
| 2026-05-06 14:58 | 34.61031 | 135.90890 | 10715 ft | 263 kts | 86° |
| 2026-05-06 14:58 | 34.60845 | 135.93082 | 9999 ft | 262 kts | 110° |
| 2026-05-06 14:58 | 34.60258 | 135.95172 | 9286 ft | 262 kts | 110° |
| 2026-05-06 14:58 | 34.59681 | 135.97265 | 8661 ft | 258 kts | 113° |
| 2026-05-06 14:59 | 34.58727 | 135.99007 | 7987 ft | 249 kts | 147° |
| 2026-05-06 14:59 | 34.57164 | 135.99739 | 7360 ft | 240 kts | 178° |
| 2026-05-06 14:59 | 34.55527 | 135.99553 | 6753 ft | 234 kts | 198° |
| 2026-05-06 14:59 | 34.54072 | 135.98712 | 6104 ft | 232 kts | 219° |
| 2026-05-06 15:00 | 34.53028 | 135.97217 | 5346 ft | 236 kts | 243° |
| 2026-05-06 15:00 | 34.52549 | 135.95325 | 4630 ft | 239 kts | 262° |
| 2026-05-06 15:00 | 34.52716 | 135.93323 | 3966 ft | 239 kts | 288° |
| 2026-05-06 15:00 | 34.53272 | 135.91422 | 3776 ft | 240 kts | 288° |
| 2026-05-06 15:01 | 34.53817 | 135.89451 | 3628 ft | 249 kts | 288° |
| 2026-05-06 15:01 | 34.54366 | 135.87484 | 3504 ft | 247 kts | 288° |
| 2026-05-06 15:01 | 34.54906 | 135.85548 | 3479 ft | 238 kts | 288° |
| 2026-05-06 15:01 | 34.55434 | 135.83653 | 3466 ft | 238 kts | 288° |
| 2026-05-06 15:02 | 34.55966 | 135.81735 | 3479 ft | 241 kts | 288° |
| 2026-05-06 15:02 | 34.56502 | 135.79797 | 3487 ft | 242 kts | 288° |
| 2026-05-06 15:02 | 34.57033 | 135.77875 | 3480 ft | 242 kts | 288° |
| 2026-05-06 15:02 | 34.57566 | 135.75944 | 3470 ft | 239 kts | 287° |
| 2026-05-06 15:03 | 34.58086 | 135.74062 | 3460 ft | 231 kts | 287° |
| 2026-05-06 15:03 | 34.58587 | 135.72246 | 3462 ft | 228 kts | 287° |
| 2026-05-06 15:03 | 34.59087 | 135.70430 | 3465 ft | 224 kts | 287° |
| 2026-05-06 15:03 | 34.59569 | 135.68682 | 3502 ft | 211 kts | 287° |
| 2026-05-06 15:04 | 34.60023 | 135.67030 | 3472 ft | 206 kts | 287° |
| 2026-05-06 15:04 | 34.60522 | 135.65398 | 3458 ft | 203 kts | 299° |
| 2026-05-06 15:04 | 34.61446 | 135.64191 | 3513 ft | 193 kts | 317° |
| 2026-05-06 15:04 | 34.62457 | 135.63131 | 3482 ft | 191 kts | 316° |
| 2026-05-06 15:05 | 34.63421 | 135.62033 | 3473 ft | 188 kts | 314° |
| 2026-05-06 15:05 | 34.64329 | 135.60952 | 3452 ft | 176 kts | 313° |
| 2026-05-06 15:05 | 34.65167 | 135.59937 | 3362 ft | 170 kts | 313° |
| 2026-05-06 15:05 | 34.65990 | 135.58934 | 3151 ft | 166 kts | 313° |
| 2026-05-06 15:06 | 34.66792 | 135.57955 | 2918 ft | 158 kts | 313° |
| 2026-05-06 15:06 | 34.67541 | 135.57041 | 2713 ft | 148 kts | 313° |
| 2026-05-06 15:06 | 34.68269 | 135.56152 | 2513 ft | 148 kts | 313° |
| 2026-05-06 15:06 | 34.68988 | 135.55274 | 2326 ft | 147 kts | 314° |
| 2026-05-06 15:07 | 34.69706 | 135.54398 | 2128 ft | 145 kts | 314° |
| 2026-05-06 15:07 | 34.70418 | 135.53528 | 1962 ft | 145 kts | 314° |
| 2026-05-06 15:07 | 34.71128 | 135.52662 | 1761 ft | 144 kts | 314° |
| 2026-05-06 15:07 | 34.71835 | 135.51796 | 1578 ft | 144 kts | 315° |
| 2026-05-06 15:08 | 34.72534 | 135.50943 | 1379 ft | 143 kts | 315° |
| 2026-05-06 15:08 | 34.73237 | 135.50084 | 1193 ft | 143 kts | 315° |
| 2026-05-06 15:08 | 34.73940 | 135.49225 | 1010 ft | 143 kts | 315° |
| 2026-05-06 15:08 | 34.74635 | 135.48357 | 773 ft | 143 kts | 315° |
| 2026-05-06 15:09 | 34.75324 | 135.47494 | 607 ft | 142 kts | 316° |
| 2026-05-06 15:09 | 34.76016 | 135.46651 | 404 ft | 143 kts | 316° |
| 2026-05-06 15:09 | 34.76726 | 135.45803 | 212 ft | 141 kts | 316° |
| 2026-05-06 15:09 | 34.77419 | 135.44957 | 53 ft | 139 kts | 315° |
| 2026-05-06 15:10 | 34.78029 | 135.44196 | 48 ft | 101 kts | 314° |
| 2026-05-06 15:10 | 34.78284 | 135.43881 | 50 ft | 49 kts | 314° |
| 2026-05-06 15:10 | 34.78532 | 135.43609 | 49 ft | 46 kts | 326° |
| 2026-05-06 15:10 | 34.78776 | 135.43462 | 47 ft | 28 kts | 337° |
| 2026-05-06 15:11 | 34.78912 | 135.43428 | 50 ft | 0 kts | 2° |
| 2026-05-06 15:11 | 34.78916 | 135.43428 | 53 ft | 1 kts | 2° |
| 2026-05-06 15:11 | 34.78933 | 135.43429 | 52 ft | 5 kts | 4° |
| 2026-05-06 15:11 | 34.78991 | 135.43447 | 49 ft | 13 kts | 25° |
| 2026-05-06 15:12 | 34.79059 | 135.43546 | 48 ft | 18 kts | 78° |
| 2026-05-06 15:12 | 34.79000 | 135.43693 | 48 ft | 23 kts | 131° |
| 2026-05-06 15:12 | 34.78885 | 135.43860 | 48 ft | 28 kts | 104° |
| 2026-05-06 15:12 | 34.78948 | 135.44043 | 49 ft | 21 kts | 66° |
| 2026-05-06 15:13 | 34.78962 | 135.44086 | 53 ft | 0 kts | 68° |